sensor_id;sensor_type;location;lat;lon;timestamp;P1;durP1;ratioP1;P2;durP2;ratioP2
15968;SDS011;8085;53.472;9.794;2022-07-17T00:00:48;4.97;;;1.57;;
15968;SDS011;8085;53.472;9.794;2022-07-17T00:03:15;3.63;;;1.20;;
15968;SDS011;8085;53.472;9.794;2022-07-17T00:05:45;7.93;;;1.70;;
15968;SDS011;8085;53.472;9.794;2022-07-17T00:08:12;6.23;;;1.77;;
15968;SDS011;8085;53.472;9.794;2022-07-17T00:10:41;7.47;;;1.73;;
15968;SDS011;8085;53.472;9.794;2022-07-17T00:13:08;6.20;;;1.80;;
15968;SDS011;8085;53.472;9.794;2022-07-17T00:15:36;9.23;;;2.20;;
15968;SDS011;8085;53.472;9.794;2022-07-17T00:18:03;9.17;;;2.03;;
15968;SDS011;8085;53.472;9.794;2022-07-17T00:20:31;5.33;;;1.80;;
15968;SDS011;8085;53.472;9.794;2022-07-17T00:23:00;4.87;;;1.83;;
15968;SDS011;8085;53.472;9.794;2022-07-17T00:25:27;5.13;;;1.93;;
15968;SDS011;8085;53.472;9.794;2022-07-17T00:27:55;7.80;;;2.23;;
15968;SDS011;8085;53.472;9.794;2022-07-17T00:30:23;6.50;;;1.97;;
15968;SDS011;8085;53.472;9.794;2022-07-17T00:32:50;7.37;;;1.67;;
15968;SDS011;8085;53.472;9.794;2022-07-17T00:35:17;7.60;;;1.47;;
15968;SDS011;8085;53.472;9.794;2022-07-17T00:37:44;4.83;;;1.40;;
15968;SDS011;8085;53.472;9.794;2022-07-17T00:40:17;7.47;;;1.90;;
15968;SDS011;8085;53.472;9.794;2022-07-17T00:42:46;6.27;;;1.60;;
15968;SDS011;8085;53.472;9.794;2022-07-17T00:45:13;4.83;;;1.53;;
15968;SDS011;8085;53.472;9.794;2022-07-17T00:47:48;5.00;;;1.63;;
15968;SDS011;8085;53.472;9.794;2022-07-17T00:50:20;6.27;;;1.60;;
15968;SDS011;8085;53.472;9.794;2022-07-17T00:52:48;5.67;;;1.50;;
15968;SDS011;8085;53.472;9.794;2022-07-17T00:55:17;5.23;;;1.77;;
15968;SDS011;8085;53.472;9.794;2022-07-17T00:57:45;5.53;;;1.50;;
15968;SDS011;8085;53.472;9.794;2022-07-17T01:00:13;7.37;;;1.67;;
15968;SDS011;8085;53.472;9.794;2022-07-17T01:02:43;4.47;;;1.30;;
15968;SDS011;8085;53.472;9.794;2022-07-17T01:05:12;6.07;;;1.40;;
15968;SDS011;8085;53.472;9.794;2022-07-17T01:07:40;6.27;;;1.43;;
15968;SDS011;8085;53.472;9.794;2022-07-17T01:10:08;5.67;;;1.70;;
15968;SDS011;8085;53.472;9.794;2022-07-17T01:12:36;5.67;;;1.43;;
15968;SDS011;8085;53.472;9.794;2022-07-17T01:15:06;7.27;;;1.87;;
15968;SDS011;8085;53.472;9.794;2022-07-17T01:17:34;4.53;;;1.50;;
15968;SDS011;8085;53.472;9.794;2022-07-17T01:20:02;6.57;;;1.63;;
15968;SDS011;8085;53.472;9.794;2022-07-17T01:22:31;6.27;;;1.60;;
15968;SDS011;8085;53.472;9.794;2022-07-17T01:24:58;3.53;;;1.60;;
15968;SDS011;8085;53.472;9.794;2022-07-17T01:27:26;5.63;;;1.57;;
15968;SDS011;8085;53.472;9.794;2022-07-17T01:29:55;4.93;;;1.60;;
15968;SDS011;8085;53.472;9.794;2022-07-17T01:32:30;5.87;;;1.70;;
15968;SDS011;8085;53.472;9.794;2022-07-17T01:34:58;5.13;;;1.93;;
15968;SDS011;8085;53.472;9.794;2022-07-17T01:37:25;5.80;;;1.73;;
15968;SDS011;8085;53.472;9.794;2022-07-17T01:39:53;7.87;;;1.77;;
15968;SDS011;8085;53.472;9.794;2022-07-17T01:42:20;4.47;;;1.43;;
15968;SDS011;8085;53.472;9.794;2022-07-17T01:44:48;6.63;;;1.67;;
15968;SDS011;8085;53.472;9.794;2022-07-17T01:47:15;6.17;;;1.77;;
15968;SDS011;8085;53.472;9.794;2022-07-17T01:49:43;5.07;;;1.33;;
15968;SDS011;8085;53.472;9.794;2022-07-17T01:52:11;3.60;;;1.60;;
15968;SDS011;8085;53.472;9.794;2022-07-17T01:54:38;7.37;;;2.13;;
15968;SDS011;8085;53.472;9.794;2022-07-17T01:57:07;3.47;;;1.83;;
15968;SDS011;8085;53.472;9.794;2022-07-17T01:59:34;6.40;;;2.27;;
15968;SDS011;8085;53.472;9.794;2022-07-17T02:02:02;6.50;;;1.90;;
15968;SDS011;8085;53.472;9.794;2022-07-17T02:04:31;5.30;;;1.53;;
15968;SDS011;8085;53.472;9.794;2022-07-17T02:07:00;5.50;;;1.67;;
15968;SDS011;8085;53.472;9.794;2022-07-17T02:09:27;9.17;;;2.13;;
15968;SDS011;8085;53.472;9.794;2022-07-17T02:11:54;6.23;;;1.70;;
15968;SDS011;8085;53.472;9.794;2022-07-17T02:14:22;3.60;;;1.70;;
15968;SDS011;8085;53.472;9.794;2022-07-17T02:16:49;9.20;;;1.60;;
15968;SDS011;8085;53.472;9.794;2022-07-17T02:19:16;4.60;;;1.80;;
15968;SDS011;8085;53.472;9.794;2022-07-17T02:21:43;5.33;;;1.80;;
15968;SDS011;8085;53.472;9.794;2022-07-17T02:24:10;8.10;;;2.17;;
15968;SDS011;8085;53.472;9.794;2022-07-17T02:26:37;4.40;;;1.87;;
15968;SDS011;8085;53.472;9.794;2022-07-17T02:29:05;4.57;;;1.63;;
15968;SDS011;8085;53.472;9.794;2022-07-17T02:31:33;3.90;;;1.73;;
15968;SDS011;8085;53.472;9.794;2022-07-17T02:34:00;6.77;;;1.83;;
15968;SDS011;8085;53.472;9.794;2022-07-17T02:36:27;5.43;;;2.00;;
15968;SDS011;8085;53.472;9.794;2022-07-17T02:38:54;5.17;;;1.93;;
15968;SDS011;8085;53.472;9.794;2022-07-17T02:41:21;6.60;;;2.07;;
15968;SDS011;8085;53.472;9.794;2022-07-17T02:43:48;5.23;;;1.83;;
15968;SDS011;8085;53.472;9.794;2022-07-17T02:46:15;6.40;;;2.00;;
15968;SDS011;8085;53.472;9.794;2022-07-17T02:48:43;5.77;;;2.03;;
15968;SDS011;8085;53.472;9.794;2022-07-17T02:51:10;6.40;;;2.00;;
15968;SDS011;8085;53.472;9.794;2022-07-17T02:53:38;9.70;;;1.90;;
15968;SDS011;8085;53.472;9.794;2022-07-17T02:56:05;5.67;;;1.87;;
15968;SDS011;8085;53.472;9.794;2022-07-17T02:58:32;5.30;;;1.63;;
15968;SDS011;8085;53.472;9.794;2022-07-17T03:00:59;7.87;;;2.07;;
15968;SDS011;8085;53.472;9.794;2022-07-17T03:03:26;4.20;;;1.73;;
15968;SDS011;8085;53.472;9.794;2022-07-17T03:05:55;7.93;;;1.90;;
15968;SDS011;8085;53.472;9.794;2022-07-17T03:08:21;7.73;;;1.77;;
15968;SDS011;8085;53.472;9.794;2022-07-17T03:10:48;2.90;;;1.53;;
15968;SDS011;8085;53.472;9.794;2022-07-17T03:13:16;2.77;;;1.40;;
15968;SDS011;8085;53.472;9.794;2022-07-17T03:15:43;5.43;;;1.87;;
15968;SDS011;8085;53.472;9.794;2022-07-17T03:18:10;6.97;;;1.73;;
15968;SDS011;8085;53.472;9.794;2022-07-17T03:20:37;6.77;;;2.27;;
15968;SDS011;8085;53.472;9.794;2022-07-17T03:23:05;6.93;;;1.97;;
15968;SDS011;8085;53.472;9.794;2022-07-17T03:25:32;6.57;;;1.93;;
15968;SDS011;8085;53.472;9.794;2022-07-17T03:27:59;6.40;;;2.30;;
15968;SDS011;8085;53.472;9.794;2022-07-17T03:30:26;9.53;;;1.97;;
15968;SDS011;8085;53.472;9.794;2022-07-17T03:32:53;4.77;;;1.60;;
15968;SDS011;8085;53.472;9.794;2022-07-17T03:35:20;4.07;;;1.60;;
15968;SDS011;8085;53.472;9.794;2022-07-17T03:37:47;3.97;;;1.40;;
15968;SDS011;8085;53.472;9.794;2022-07-17T03:40:16;7.17;;;1.77;;
15968;SDS011;8085;53.472;9.794;2022-07-17T03:42:43;5.80;;;1.70;;
15968;SDS011;8085;53.472;9.794;2022-07-17T03:45:10;3.93;;;1.63;;
15968;SDS011;8085;53.472;9.794;2022-07-17T03:47:37;4.80;;;1.70;;
15968;SDS011;8085;53.472;9.794;2022-07-17T03:50:04;5.67;;;1.50;;
15968;SDS011;8085;53.472;9.794;2022-07-17T03:52:32;5.50;;;1.60;;
15968;SDS011;8085;53.472;9.794;2022-07-17T03:54:59;8.63;;;1.50;;
15968;SDS011;8085;53.472;9.794;2022-07-17T03:57:27;4.90;;;1.37;;
15968;SDS011;8085;53.472;9.794;2022-07-17T03:59:55;6.73;;;1.80;;
15968;SDS011;8085;53.472;9.794;2022-07-17T04:02:22;3.83;;;1.57;;
15968;SDS011;8085;53.472;9.794;2022-07-17T04:04:49;3.27;;;1.90;;
15968;SDS011;8085;53.472;9.794;2022-07-17T04:07:16;5.57;;;1.70;;
15968;SDS011;8085;53.472;9.794;2022-07-17T04:09:56;5.17;;;1.50;;
15968;SDS011;8085;53.472;9.794;2022-07-17T04:12:25;4.30;;;1.63;;
15968;SDS011;8085;53.472;9.794;2022-07-17T04:14:56;5.60;;;1.70;;
15968;SDS011;8085;53.472;9.794;2022-07-17T04:17:23;7.30;;;2.50;;
15968;SDS011;8085;53.472;9.794;2022-07-17T04:19:50;7.40;;;1.73;;
15968;SDS011;8085;53.472;9.794;2022-07-17T04:22:18;5.47;;;1.70;;
15968;SDS011;8085;53.472;9.794;2022-07-17T04:24:45;4.17;;;1.70;;
15968;SDS011;8085;53.472;9.794;2022-07-17T04:27:12;4.53;;;1.60;;
15968;SDS011;8085;53.472;9.794;2022-07-17T04:29:39;5.07;;;1.77;;
15968;SDS011;8085;53.472;9.794;2022-07-17T04:32:08;4.67;;;1.50;;
15968;SDS011;8085;53.472;9.794;2022-07-17T04:34:35;8.00;;;1.70;;
15968;SDS011;8085;53.472;9.794;2022-07-17T04:37:03;5.63;;;1.47;;
15968;SDS011;8085;53.472;9.794;2022-07-17T04:39:30;5.73;;;1.63;;
15968;SDS011;8085;53.472;9.794;2022-07-17T04:41:58;7.23;;;1.80;;
15968;SDS011;8085;53.472;9.794;2022-07-17T04:44:25;4.67;;;1.57;;
15968;SDS011;8085;53.472;9.794;2022-07-17T04:46:52;5.60;;;1.50;;
15968;SDS011;8085;53.472;9.794;2022-07-17T04:49:26;7.03;;;1.70;;
15968;SDS011;8085;53.472;9.794;2022-07-17T04:51:53;7.60;;;1.77;;
15968;SDS011;8085;53.472;9.794;2022-07-17T04:54:20;5.27;;;1.70;;
15968;SDS011;8085;53.472;9.794;2022-07-17T04:56:47;3.90;;;1.43;;
15968;SDS011;8085;53.472;9.794;2022-07-17T04:59:14;6.53;;;1.50;;
15968;SDS011;8085;53.472;9.794;2022-07-17T05:01:41;5.93;;;1.67;;
15968;SDS011;8085;53.472;9.794;2022-07-17T05:04:08;3.23;;;1.57;;
15968;SDS011;8085;53.472;9.794;2022-07-17T05:06:37;6.23;;;2.00;;
15968;SDS011;8085;53.472;9.794;2022-07-17T05:09:04;3.33;;;1.10;;
15968;SDS011;8085;53.472;9.794;2022-07-17T05:11:31;5.00;;;1.20;;
15968;SDS011;8085;53.472;9.794;2022-07-17T05:13:58;4.23;;;1.40;;
15968;SDS011;8085;53.472;9.794;2022-07-17T05:16:25;4.77;;;1.53;;
15968;SDS011;8085;53.472;9.794;2022-07-17T05:18:52;5.63;;;1.50;;
15968;SDS011;8085;53.472;9.794;2022-07-17T05:21:19;2.80;;;1.43;;
15968;SDS011;8085;53.472;9.794;2022-07-17T05:23:50;4.10;;;1.60;;
15968;SDS011;8085;53.472;9.794;2022-07-17T05:26:20;7.73;;;1.20;;
15968;SDS011;8085;53.472;9.794;2022-07-17T05:28:47;4.57;;;1.50;;
15968;SDS011;8085;53.472;9.794;2022-07-17T05:31:15;3.30;;;1.57;;
15968;SDS011;8085;53.472;9.794;2022-07-17T05:33:45;4.70;;;1.60;;
15968;SDS011;8085;53.472;9.794;2022-07-17T05:36:12;4.30;;;1.40;;
15968;SDS011;8085;53.472;9.794;2022-07-17T05:38:39;7.87;;;1.40;;
15968;SDS011;8085;53.472;9.794;2022-07-17T05:41:07;2.50;;;1.23;;
15968;SDS011;8085;53.472;9.794;2022-07-17T05:43:34;6.03;;;1.30;;
15968;SDS011;8085;53.472;9.794;2022-07-17T05:46:01;4.80;;;1.37;;
15968;SDS011;8085;53.472;9.794;2022-07-17T05:48:29;3.13;;;1.37;;
15968;SDS011;8085;53.472;9.794;2022-07-17T05:50:57;4.10;;;1.30;;
15968;SDS011;8085;53.472;9.794;2022-07-17T05:53:24;4.97;;;1.60;;
15968;SDS011;8085;53.472;9.794;2022-07-17T05:55:51;5.67;;;1.40;;
15968;SDS011;8085;53.472;9.794;2022-07-17T05:58:20;3.63;;;1.20;;
15968;SDS011;8085;53.472;9.794;2022-07-17T06:00:47;5.80;;;1.33;;
15968;SDS011;8085;53.472;9.794;2022-07-17T06:03:15;4.37;;;1.27;;
15968;SDS011;8085;53.472;9.794;2022-07-17T06:05:42;5.13;;;1.53;;
15968;SDS011;8085;53.472;9.794;2022-07-17T06:08:08;5.37;;;1.40;;
15968;SDS011;8085;53.472;9.794;2022-07-17T06:10:35;5.30;;;1.90;;
15968;SDS011;8085;53.472;9.794;2022-07-17T06:13:03;6.00;;;1.43;;
15968;SDS011;8085;53.472;9.794;2022-07-17T06:15:32;3.33;;;1.40;;
15968;SDS011;8085;53.472;9.794;2022-07-17T06:17:59;4.03;;;1.37;;
15968;SDS011;8085;53.472;9.794;2022-07-17T06:20:27;6.40;;;1.30;;
15968;SDS011;8085;53.472;9.794;2022-07-17T06:22:54;5.90;;;1.37;;
15968;SDS011;8085;53.472;9.794;2022-07-17T06:25:21;4.50;;;1.47;;
15968;SDS011;8085;53.472;9.794;2022-07-17T06:27:48;3.17;;;1.33;;
15968;SDS011;8085;53.472;9.794;2022-07-17T06:30:16;4.53;;;1.30;;
15968;SDS011;8085;53.472;9.794;2022-07-17T06:32:44;2.90;;;1.20;;
15968;SDS011;8085;53.472;9.794;2022-07-17T06:35:12;2.67;;;1.50;;
15968;SDS011;8085;53.472;9.794;2022-07-17T06:37:39;5.07;;;1.50;;
15968;SDS011;8085;53.472;9.794;2022-07-17T06:40:06;6.60;;;1.60;;
15968;SDS011;8085;53.472;9.794;2022-07-17T06:42:33;3.33;;;1.37;;
15968;SDS011;8085;53.472;9.794;2022-07-17T06:45:00;4.80;;;1.40;;
15968;SDS011;8085;53.472;9.794;2022-07-17T06:47:28;6.93;;;2.10;;
15968;SDS011;8085;53.472;9.794;2022-07-17T06:49:56;2.47;;;1.30;;
15968;SDS011;8085;53.472;9.794;2022-07-17T06:52:23;7.07;;;1.20;;
15968;SDS011;8085;53.472;9.794;2022-07-17T06:54:50;3.07;;;1.10;;
15968;SDS011;8085;53.472;9.794;2022-07-17T06:57:17;5.10;;;1.60;;
15968;SDS011;8085;53.472;9.794;2022-07-17T06:59:44;2.97;;;1.20;;
15968;SDS011;8085;53.472;9.794;2022-07-17T07:02:11;3.00;;;1.20;;
15968;SDS011;8085;53.472;9.794;2022-07-17T07:04:38;4.40;;;1.20;;
15968;SDS011;8085;53.472;9.794;2022-07-17T07:07:06;3.33;;;1.10;;
15968;SDS011;8085;53.472;9.794;2022-07-17T07:09:33;4.67;;;1.37;;
15968;SDS011;8085;53.472;9.794;2022-07-17T07:12:00;4.83;;;1.33;;
15968;SDS011;8085;53.472;9.794;2022-07-17T07:14:26;4.37;;;1.30;;
15968;SDS011;8085;53.472;9.794;2022-07-17T07:16:53;3.67;;;1.53;;
15968;SDS011;8085;53.472;9.794;2022-07-17T07:19:20;3.77;;;1.30;;
15968;SDS011;8085;53.472;9.794;2022-07-17T07:21:47;2.33;;;1.00;;
15968;SDS011;8085;53.472;9.794;2022-07-17T07:24:16;6.00;;;1.50;;
15968;SDS011;8085;53.472;9.794;2022-07-17T07:26:42;3.27;;;1.30;;
15968;SDS011;8085;53.472;9.794;2022-07-17T07:29:10;2.33;;;1.00;;
15968;SDS011;8085;53.472;9.794;2022-07-17T07:31:36;4.63;;;1.37;;
15968;SDS011;8085;53.472;9.794;2022-07-17T07:34:03;5.87;;;1.50;;
15968;SDS011;8085;53.472;9.794;2022-07-17T07:36:30;1.67;;;1.10;;
15968;SDS011;8085;53.472;9.794;2022-07-17T07:38:57;5.20;;;1.10;;
15968;SDS011;8085;53.472;9.794;2022-07-17T07:41:26;3.37;;;1.17;;
15968;SDS011;8085;53.472;9.794;2022-07-17T07:43:53;3.83;;;1.17;;
15968;SDS011;8085;53.472;9.794;2022-07-17T07:46:20;4.27;;;1.10;;
15968;SDS011;8085;53.472;9.794;2022-07-17T07:48:46;2.93;;;1.20;;
15968;SDS011;8085;53.472;9.794;2022-07-17T07:51:13;6.10;;;1.40;;
15968;SDS011;8085;53.472;9.794;2022-07-17T07:53:40;2.27;;;1.00;;
15968;SDS011;8085;53.472;9.794;2022-07-17T07:56:07;6.03;;;1.20;;
15968;SDS011;8085;53.472;9.794;2022-07-17T07:58:35;4.00;;;1.27;;
15968;SDS011;8085;53.472;9.794;2022-07-17T08:01:02;4.83;;;1.33;;
15968;SDS011;8085;53.472;9.794;2022-07-17T08:03:29;3.30;;;1.03;;
15968;SDS011;8085;53.472;9.794;2022-07-17T08:05:56;4.87;;;1.27;;
15968;SDS011;8085;53.472;9.794;2022-07-17T08:08:23;3.27;;;1.27;;
15968;SDS011;8085;53.472;9.794;2022-07-17T08:10:51;3.77;;;1.37;;
15968;SDS011;8085;53.472;9.794;2022-07-17T08:13:19;4.10;;;1.40;;
15968;SDS011;8085;53.472;9.794;2022-07-17T08:15:47;4.80;;;1.10;;
15968;SDS011;8085;53.472;9.794;2022-07-17T08:18:14;4.67;;;1.20;;
15968;SDS011;8085;53.472;9.794;2022-07-17T08:20:41;4.93;;;1.37;;
15968;SDS011;8085;53.472;9.794;2022-07-17T08:23:08;2.73;;;1.33;;
15968;SDS011;8085;53.472;9.794;2022-07-17T08:25:36;6.47;;;1.30;;
15968;SDS011;8085;53.472;9.794;2022-07-17T08:28:03;4.47;;;1.17;;
15968;SDS011;8085;53.472;9.794;2022-07-17T08:30:30;5.37;;;1.23;;
15968;SDS011;8085;53.472;9.794;2022-07-17T08:33:01;5.67;;;1.47;;
15968;SDS011;8085;53.472;9.794;2022-07-17T08:35:28;5.30;;;1.27;;
15968;SDS011;8085;53.472;9.794;2022-07-17T08:37:57;4.50;;;1.30;;
15968;SDS011;8085;53.472;9.794;2022-07-17T08:40:25;3.80;;;1.33;;
15968;SDS011;8085;53.472;9.794;2022-07-17T08:42:54;5.83;;;1.50;;
15968;SDS011;8085;53.472;9.794;2022-07-17T08:45:22;3.47;;;1.20;;
15968;SDS011;8085;53.472;9.794;2022-07-17T08:47:50;3.90;;;1.40;;
15968;SDS011;8085;53.472;9.794;2022-07-17T08:50:21;4.93;;;1.17;;
15968;SDS011;8085;53.472;9.794;2022-07-17T08:52:50;3.33;;;1.10;;
15968;SDS011;8085;53.472;9.794;2022-07-17T08:55:17;5.70;;;1.27;;
15968;SDS011;8085;53.472;9.794;2022-07-17T08:57:45;3.80;;;0.97;;
15968;SDS011;8085;53.472;9.794;2022-07-17T09:00:13;3.53;;;1.30;;
15968;SDS011;8085;53.472;9.794;2022-07-17T09:02:52;6.53;;;1.30;;
15968;SDS011;8085;53.472;9.794;2022-07-17T09:05:21;4.57;;;1.30;;
15968;SDS011;8085;53.472;9.794;2022-07-17T09:07:49;2.50;;;0.97;;
15968;SDS011;8085;53.472;9.794;2022-07-17T09:10:16;2.00;;;1.10;;
15968;SDS011;8085;53.472;9.794;2022-07-17T09:12:43;3.67;;;1.20;;
15968;SDS011;8085;53.472;9.794;2022-07-17T09:15:14;6.03;;;1.30;;
15968;SDS011;8085;53.472;9.794;2022-07-17T09:17:49;3.70;;;0.97;;
15968;SDS011;8085;53.472;9.794;2022-07-17T09:20:17;1.50;;;0.97;;
15968;SDS011;8085;53.472;9.794;2022-07-17T09:22:46;4.67;;;1.07;;
15968;SDS011;8085;53.472;9.794;2022-07-17T09:25:33;2.40;;;1.00;;
15968;SDS011;8085;53.472;9.794;2022-07-17T09:28:01;4.47;;;1.00;;
15968;SDS011;8085;53.472;9.794;2022-07-17T09:30:30;4.37;;;1.30;;
15968;SDS011;8085;53.472;9.794;2022-07-17T09:32:57;3.37;;;1.00;;
15968;SDS011;8085;53.472;9.794;2022-07-17T09:35:27;3.63;;;1.20;;
15968;SDS011;8085;53.472;9.794;2022-07-17T09:37:57;5.57;;;1.20;;
15968;SDS011;8085;53.472;9.794;2022-07-17T09:40:27;3.27;;;1.00;;
15968;SDS011;8085;53.472;9.794;2022-07-17T09:43:11;3.77;;;1.00;;
15968;SDS011;8085;53.472;9.794;2022-07-17T09:45:38;2.50;;;1.00;;
15968;SDS011;8085;53.472;9.794;2022-07-17T09:48:06;2.60;;;0.70;;
15968;SDS011;8085;53.472;9.794;2022-07-17T09:50:35;3.67;;;1.17;;
15968;SDS011;8085;53.472;9.794;2022-07-17T09:53:05;5.23;;;1.00;;
15968;SDS011;8085;53.472;9.794;2022-07-17T09:55:34;1.53;;;0.87;;
15968;SDS011;8085;53.472;9.794;2022-07-17T09:58:03;3.93;;;1.03;;
15968;SDS011;8085;53.472;9.794;2022-07-17T10:00:32;3.60;;;0.97;;
15968;SDS011;8085;53.472;9.794;2022-07-17T10:03:03;5.23;;;1.23;;
15968;SDS011;8085;53.472;9.794;2022-07-17T10:05:31;4.93;;;1.10;;
15968;SDS011;8085;53.472;9.794;2022-07-17T10:07:58;2.87;;;1.00;;
15968;SDS011;8085;53.472;9.794;2022-07-17T10:10:27;5.67;;;1.00;;
15968;SDS011;8085;53.472;9.794;2022-07-17T10:12:55;3.10;;;1.03;;
15968;SDS011;8085;53.472;9.794;2022-07-17T10:15:23;1.70;;;0.63;;
15968;SDS011;8085;53.472;9.794;2022-07-17T10:18:02;2.60;;;1.00;;
15968;SDS011;8085;53.472;9.794;2022-07-17T10:20:30;2.53;;;0.83;;
15968;SDS011;8085;53.472;9.794;2022-07-17T10:22:57;4.30;;;0.90;;
15968;SDS011;8085;53.472;9.794;2022-07-17T10:25:24;3.43;;;1.10;;
15968;SDS011;8085;53.472;9.794;2022-07-17T10:27:53;1.60;;;0.75;;
15968;SDS011;8085;53.472;9.794;2022-07-17T10:30:24;6.10;;;0.85;;
15968;SDS011;8085;53.472;9.794;2022-07-17T10:32:53;2.03;;;1.00;;
15968;SDS011;8085;53.472;9.794;2022-07-17T10:35:21;4.93;;;1.00;;
15968;SDS011;8085;53.472;9.794;2022-07-17T10:37:49;2.20;;;0.80;;
15968;SDS011;8085;53.472;9.794;2022-07-17T10:40:17;3.87;;;0.87;;
15968;SDS011;8085;53.472;9.794;2022-07-17T10:42:46;2.33;;;0.90;;
15968;SDS011;8085;53.472;9.794;2022-07-17T10:45:19;6.22;;;0.80;;
15968;SDS011;8085;53.472;9.794;2022-07-17T10:47:52;2.90;;;0.90;;
15968;SDS011;8085;53.472;9.794;2022-07-17T10:50:27;2.28;;;0.75;;
15968;SDS011;8085;53.472;9.794;2022-07-17T10:52:59;2.30;;;0.80;;
15968;SDS011;8085;53.472;9.794;2022-07-17T10:55:32;1.98;;;0.80;;
15968;SDS011;8085;53.472;9.794;2022-07-17T10:57:59;3.00;;;0.90;;
15968;SDS011;8085;53.472;9.794;2022-07-17T11:00:28;3.03;;;1.20;;
15968;SDS011;8085;53.472;9.794;2022-07-17T11:02:55;2.90;;;1.02;;
15968;SDS011;8085;53.472;9.794;2022-07-17T11:05:22;3.10;;;1.00;;
15968;SDS011;8085;53.472;9.794;2022-07-17T11:07:53;2.93;;;1.00;;
15968;SDS011;8085;53.472;9.794;2022-07-17T11:10:22;4.47;;;0.90;;
15968;SDS011;8085;53.472;9.794;2022-07-17T11:12:50;3.90;;;1.00;;
15968;SDS011;8085;53.472;9.794;2022-07-17T11:15:17;3.23;;;0.87;;
15968;SDS011;8085;53.472;9.794;2022-07-17T11:17:46;2.50;;;0.80;;
15968;SDS011;8085;53.472;9.794;2022-07-17T11:20:14;5.07;;;1.10;;
15968;SDS011;8085;53.472;9.794;2022-07-17T11:22:43;3.17;;;1.00;;
15968;SDS011;8085;53.472;9.794;2022-07-17T11:25:10;2.27;;;1.00;;
15968;SDS011;8085;53.472;9.794;2022-07-17T11:27:38;1.92;;;0.88;;
15968;SDS011;8085;53.472;9.794;2022-07-17T11:30:09;2.15;;;0.93;;
15968;SDS011;8085;53.472;9.794;2022-07-17T11:32:41;2.35;;;1.15;;
15968;SDS011;8085;53.472;9.794;2022-07-17T11:35:19;1.60;;;0.88;;
15968;SDS011;8085;53.472;9.794;2022-07-17T11:37:47;1.85;;;0.90;;
15968;SDS011;8085;53.472;9.794;2022-07-17T11:40:17;2.20;;;0.90;;
15968;SDS011;8085;53.472;9.794;2022-07-17T11:42:44;3.17;;;0.90;;
15968;SDS011;8085;53.472;9.794;2022-07-17T11:45:11;4.18;;;0.95;;
15968;SDS011;8085;53.472;9.794;2022-07-17T11:47:38;1.83;;;0.93;;
15968;SDS011;8085;53.472;9.794;2022-07-17T11:50:09;2.58;;;0.80;;
15968;SDS011;8085;53.472;9.794;2022-07-17T11:52:42;2.08;;;0.88;;
15968;SDS011;8085;53.472;9.794;2022-07-17T11:55:10;2.22;;;0.77;;
15968;SDS011;8085;53.472;9.794;2022-07-17T11:57:42;2.97;;;0.90;;
15968;SDS011;8085;53.472;9.794;2022-07-17T12:00:11;1.83;;;0.70;;
15968;SDS011;8085;53.472;9.794;2022-07-17T12:02:39;3.67;;;0.90;;
15968;SDS011;8085;53.472;9.794;2022-07-17T12:05:07;5.18;;;0.88;;
15968;SDS011;8085;53.472;9.794;2022-07-17T12:07:43;4.22;;;0.95;;
15968;SDS011;8085;53.472;9.794;2022-07-17T12:10:11;3.50;;;1.02;;
15968;SDS011;8085;53.472;9.794;2022-07-17T12:12:39;2.10;;;0.77;;
15968;SDS011;8085;53.472;9.794;2022-07-17T12:15:17;1.25;;;0.90;;
15968;SDS011;8085;53.472;9.794;2022-07-17T12:17:44;2.30;;;0.90;;
15968;SDS011;8085;53.472;9.794;2022-07-17T12:20:12;2.63;;;1.02;;
15968;SDS011;8085;53.472;9.794;2022-07-17T12:22:44;2.35;;;0.82;;
15968;SDS011;8085;53.472;9.794;2022-07-17T12:25:22;3.20;;;0.77;;
15968;SDS011;8085;53.472;9.794;2022-07-17T12:27:50;1.25;;;0.73;;
15968;SDS011;8085;53.472;9.794;2022-07-17T12:30:17;1.83;;;1.13;;
15968;SDS011;8085;53.472;9.794;2022-07-17T12:32:44;1.58;;;0.82;;
15968;SDS011;8085;53.472;9.794;2022-07-17T12:35:13;4.20;;;1.00;;
15968;SDS011;8085;53.472;9.794;2022-07-17T12:37:40;4.72;;;1.20;;
15968;SDS011;8085;53.472;9.794;2022-07-17T12:40:09;1.75;;;0.95;;
15968;SDS011;8085;53.472;9.794;2022-07-17T12:42:36;2.90;;;0.90;;
15968;SDS011;8085;53.472;9.794;2022-07-17T12:45:03;3.80;;;0.90;;
15968;SDS011;8085;53.472;9.794;2022-07-17T12:47:30;1.85;;;0.95;;
15968;SDS011;8085;53.472;9.794;2022-07-17T12:49:57;1.63;;;0.70;;
15968;SDS011;8085;53.472;9.794;2022-07-17T12:52:26;1.45;;;0.80;;
15968;SDS011;8085;53.472;9.794;2022-07-17T12:54:53;1.67;;;0.75;;
15968;SDS011;8085;53.472;9.794;2022-07-17T12:57:28;2.53;;;1.00;;
15968;SDS011;8085;53.472;9.794;2022-07-17T12:59:55;2.22;;;0.63;;
15968;SDS011;8085;53.472;9.794;2022-07-17T13:02:22;1.45;;;0.80;;
15968;SDS011;8085;53.472;9.794;2022-07-17T13:04:50;2.25;;;0.80;;
15968;SDS011;8085;53.472;9.794;2022-07-17T13:07:16;2.80;;;0.88;;
15968;SDS011;8085;53.472;9.794;2022-07-17T13:09:43;0.77;;;0.70;;
15968;SDS011;8085;53.472;9.794;2022-07-17T13:12:10;2.10;;;1.00;;
15968;SDS011;8085;53.472;9.794;2022-07-17T13:14:38;2.22;;;1.05;;
15968;SDS011;8085;53.472;9.794;2022-07-17T13:17:05;3.58;;;1.00;;
15968;SDS011;8085;53.472;9.794;2022-07-17T13:19:33;1.58;;;0.75;;
15968;SDS011;8085;53.472;9.794;2022-07-17T13:22:01;2.08;;;0.88;;
15968;SDS011;8085;53.472;9.794;2022-07-17T13:24:29;2.22;;;1.05;;
15968;SDS011;8085;53.472;9.794;2022-07-17T13:26:56;2.03;;;0.98;;
15968;SDS011;8085;53.472;9.794;2022-07-17T13:29:23;2.33;;;0.88;;
15968;SDS011;8085;53.472;9.794;2022-07-17T13:31:52;3.50;;;0.80;;
15968;SDS011;8085;53.472;9.794;2022-07-17T13:34:19;3.50;;;0.90;;
15968;SDS011;8085;53.472;9.794;2022-07-17T13:36:47;1.20;;;0.75;;
15968;SDS011;8085;53.472;9.794;2022-07-17T13:39:14;2.60;;;0.73;;
15968;SDS011;8085;53.472;9.794;2022-07-17T13:41:41;3.33;;;0.85;;
15968;SDS011;8085;53.472;9.794;2022-07-17T13:44:08;2.15;;;1.02;;
15968;SDS011;8085;53.472;9.794;2022-07-17T13:46:35;3.67;;;1.00;;
15968;SDS011;8085;53.472;9.794;2022-07-17T13:49:04;4.15;;;0.80;;
15968;SDS011;8085;53.472;9.794;2022-07-17T13:51:31;2.13;;;0.90;;
15968;SDS011;8085;53.472;9.794;2022-07-17T13:53:59;1.10;;;0.52;;
15968;SDS011;8085;53.472;9.794;2022-07-17T13:56:26;1.50;;;0.80;;
15968;SDS011;8085;53.472;9.794;2022-07-17T13:58:53;2.42;;;0.85;;
15968;SDS011;8085;53.472;9.794;2022-07-17T14:01:20;0.82;;;0.60;;
15968;SDS011;8085;53.472;9.794;2022-07-17T14:03:47;1.77;;;0.73;;
15968;SDS011;8085;53.472;9.794;2022-07-17T14:06:15;1.50;;;0.70;;
15968;SDS011;8085;53.472;9.794;2022-07-17T14:08:42;3.00;;;0.80;;
15968;SDS011;8085;53.472;9.794;2022-07-17T14:11:10;1.70;;;0.90;;
15968;SDS011;8085;53.472;9.794;2022-07-17T14:13:37;1.42;;;0.88;;
15968;SDS011;8085;53.472;9.794;2022-07-17T14:16:04;2.65;;;0.88;;
15968;SDS011;8085;53.472;9.794;2022-07-17T14:18:31;1.38;;;0.82;;
15968;SDS011;8085;53.472;9.794;2022-07-17T14:20:58;3.00;;;0.90;;
15968;SDS011;8085;53.472;9.794;2022-07-17T14:23:26;2.15;;;1.20;;
15968;SDS011;8085;53.472;9.794;2022-07-17T14:25:53;1.35;;;0.70;;
15968;SDS011;8085;53.472;9.794;2022-07-17T14:28:20;2.15;;;0.73;;
15968;SDS011;8085;53.472;9.794;2022-07-17T14:30:47;1.95;;;0.93;;
15968;SDS011;8085;53.472;9.794;2022-07-17T14:33:14;1.38;;;0.70;;
15968;SDS011;8085;53.472;9.794;2022-07-17T14:35:41;1.67;;;0.85;;
15968;SDS011;8085;53.472;9.794;2022-07-17T14:38:08;1.08;;;0.77;;
15968;SDS011;8085;53.472;9.794;2022-07-17T14:40:36;3.15;;;1.02;;
15968;SDS011;8085;53.472;9.794;2022-07-17T14:43:03;3.33;;;0.85;;
15968;SDS011;8085;53.472;9.794;2022-07-17T14:45:30;1.77;;;0.70;;
15968;SDS011;8085;53.472;9.794;2022-07-17T14:47:57;2.17;;;0.85;;
15968;SDS011;8085;53.472;9.794;2022-07-17T14:50:24;2.10;;;1.10;;
15968;SDS011;8085;53.472;9.794;2022-07-17T14:52:51;2.58;;;1.00;;
15968;SDS011;8085;53.472;9.794;2022-07-17T14:55:17;1.88;;;0.80;;
15968;SDS011;8085;53.472;9.794;2022-07-17T14:57:46;1.92;;;1.05;;
15968;SDS011;8085;53.472;9.794;2022-07-17T15:00:13;1.73;;;1.00;;
15968;SDS011;8085;53.472;9.794;2022-07-17T15:02:41;2.55;;;1.15;;
15968;SDS011;8085;53.472;9.794;2022-07-17T15:05:08;2.42;;;1.20;;